North Pitcher, New York
Current Conditions -  °F | °C
As of 1:55 PM on Tuesday 27 Jan 2015 (Local Time) from KN03 Reporting Station
Clear Clear  
Wind Chill:   Ceiling: Unl
Heat Index: 16°   Visibility: 10mi
Dew Point:   Wind: 7mph
Humidity: 62%   Direction: 340°NNW
Pressure: 29.85"   Gusts: NA
Location:  42.62°N, 75.82°W
Report Text: KN03 271855Z AUTO 34006KT 10SM CLR M09/M15 A2985 RMK AO2
Loading
Personal Weather Stations






























Interactive Weather Map New forecast layout! Learn more

10-Day Weather Forecast

Advertisements
Track Severe Weather on mobile